sensor_id;sensor_type;location;lat;lon;timestamp;pressure;altitude;pressure_sealevel;temperature;humidity
10460;BME280;54412;51.206;6.888;2024-01-25T00:01:18;102003.81;;;10.88;84.29
10460;BME280;54412;51.206;6.888;2024-01-25T00:03:43;102002.69;;;10.96;83.96
10460;BME280;54412;51.206;6.888;2024-01-25T00:06:09;102003.94;;;10.83;84.29
10460;BME280;54412;51.206;6.888;2024-01-25T00:08:35;101993.38;;;10.83;84.76
10460;BME280;54412;51.206;6.888;2024-01-25T00:11:02;101993.44;;;10.82;84.49
10460;BME280;54412;51.206;6.888;2024-01-25T00:13:28;102008.19;;;10.89;84.11
10460;BME280;54412;51.206;6.888;2024-01-25T00:15:54;102002.63;;;10.98;84.16
10460;BME280;54412;51.206;6.888;2024-01-25T00:18:20;102006.25;;;10.95;84.50
10460;BME280;54412;51.206;6.888;2024-01-25T00:20:46;102006.19;;;10.97;84.35
10460;BME280;54412;51.206;6.888;2024-01-25T00:23:12;102008.88;;;10.95;84.22
10460;BME280;54412;51.206;6.888;2024-01-25T00:25:38;102006.25;;;10.95;84.28
10460;BME280;54412;51.206;6.888;2024-01-25T00:28:04;102003.81;;;10.88;84.34
10460;BME280;54412;51.206;6.888;2024-01-25T00:30:29;102003.78;;;10.89;84.56
10460;BME280;54412;51.206;6.888;2024-01-25T00:32:58;102010.50;;;10.70;85.54
10460;BME280;54412;51.206;6.888;2024-01-25T00:35:25;102008.19;;;10.89;84.84
10460;BME280;54412;51.206;6.888;2024-01-25T00:37:51;102007.59;;;10.79;85.21
10460;BME280;54412;51.206;6.888;2024-01-25T00:40:17;102004.72;;;10.87;84.89
10460;BME280;54412;51.206;6.888;2024-01-25T00:42:46;102015.75;;;11.01;84.48
10460;BME280;54412;51.206;6.888;2024-01-25T00:45:19;102010.78;;;10.90;84.67
10460;BME280;54412;51.206;6.888;2024-01-25T00:47:45;102027.38;;;10.95;84.50
10460;BME280;54412;51.206;6.888;2024-01-25T00:50:12;102019.56;;;10.91;84.44
10460;BME280;54412;51.206;6.888;2024-01-25T00:52:39;102020.66;;;10.84;84.71
10460;BME280;54412;51.206;6.888;2024-01-25T00:55:06;102022.38;;;10.85;84.86
10460;BME280;54412;51.206;6.888;2024-01-25T00:57:32;102024.78;;;10.92;84.57
10460;BME280;54412;51.206;6.888;2024-01-25T00:59:59;102019.84;;;10.82;85.06
10460;BME280;54412;51.206;6.888;2024-01-25T01:02:26;102019.00;;;10.80;84.89
10460;BME280;54412;51.206;6.888;2024-01-25T01:04:57;102021.22;;;10.95;84.29
10460;BME280;54412;51.206;6.888;2024-01-25T01:07:24;102016.59;;;10.72;85.05
10460;BME280;54412;51.206;6.888;2024-01-25T01:09:49;102022.09;;;10.65;85.30
10460;BME280;54412;51.206;6.888;2024-01-25T01:12:15;102016.94;;;10.60;85.28
10460;BME280;54412;51.206;6.888;2024-01-25T01:14:42;102021.25;;;10.93;83.92
10460;BME280;54412;51.206;6.888;2024-01-25T01:17:08;102023.28;;;10.53;85.53
10460;BME280;54412;51.206;6.888;2024-01-25T01:19:33;102024.91;;;10.59;85.61
10460;BME280;54412;51.206;6.888;2024-01-25T01:21:59;102019.53;;;10.62;85.50
10460;BME280;54412;51.206;6.888;2024-01-25T01:24:25;102017.91;;;10.58;85.34
10460;BME280;54412;51.206;6.888;2024-01-25T01:26:50;102020.28;;;10.67;85.39
10460;BME280;54412;51.206;6.888;2024-01-25T01:29:16;102021.13;;;10.67;85.70
10460;BME280;54412;51.206;6.888;2024-01-25T01:31:43;102023.47;;;10.78;84.68
10460;BME280;54412;51.206;6.888;2024-01-25T01:34:08;102019.00;;;10.49;86.06
10460;BME280;54412;51.206;6.888;2024-01-25T01:36:34;102027.34;;;10.66;85.75
10460;BME280;54412;51.206;6.888;2024-01-25T01:39:00;102023.41;;;10.50;86.30
10460;BME280;54412;51.206;6.888;2024-01-25T01:41:25;102015.63;;;10.44;86.26
10460;BME280;54412;51.206;6.888;2024-01-25T01:43:54;102027.88;;;10.46;86.43
10460;BME280;54412;51.206;6.888;2024-01-25T01:46:37;102028.91;;;10.41;86.86
10460;BME280;54412;51.206;6.888;2024-01-25T01:49:07;102031.22;;;10.21;87.80
10460;BME280;54412;51.206;6.888;2024-01-25T01:51:35;102034.09;;;10.44;87.11
10460;BME280;54412;51.206;6.888;2024-01-25T01:54:02;102027.00;;;10.46;86.75
10460;BME280;54412;51.206;6.888;2024-01-25T01:56:29;102038.16;;;10.57;86.30
10460;BME280;54412;51.206;6.888;2024-01-25T01:59:01;102039.66;;;10.33;87.02
10460;BME280;54412;51.206;6.888;2024-01-25T02:01:29;102058.72;;;10.44;87.00
10460;BME280;54412;51.206;6.888;2024-01-25T02:03:54;102054.81;;;10.27;87.71
10460;BME280;54412;51.206;6.888;2024-01-25T02:06:23;102051.88;;;10.37;87.33
10460;BME280;54412;51.206;6.888;2024-01-25T02:08:49;102052.22;;;10.56;86.73
10460;BME280;54412;51.206;6.888;2024-01-25T02:11:25;102055.91;;;10.50;86.08
10460;BME280;54412;51.206;6.888;2024-01-25T02:13:51;102062.22;;;10.45;87.07
10460;BME280;54412;51.206;6.888;2024-01-25T02:16:16;102069.47;;;10.37;87.83
10460;BME280;54412;51.206;6.888;2024-01-25T02:18:43;102060.91;;;10.29;87.84
10460;BME280;54412;51.206;6.888;2024-01-25T02:21:09;102074.38;;;10.17;88.35
10460;BME280;54412;51.206;6.888;2024-01-25T02:23:34;102084.25;;;10.42;87.63
10460;BME280;54412;51.206;6.888;2024-01-25T02:26:00;102082.13;;;10.57;86.58
10460;BME280;54412;51.206;6.888;2024-01-25T02:28:26;102084.25;;;10.42;87.08
10460;BME280;54412;51.206;6.888;2024-01-25T02:30:51;102087.84;;;10.40;87.52
10460;BME280;54412;51.206;6.888;2024-01-25T02:33:17;102091.41;;;10.39;88.02
10460;BME280;54412;51.206;6.888;2024-01-25T02:35:43;102090.88;;;10.59;87.00
10460;BME280;54412;51.206;6.888;2024-01-25T02:38:09;102113.22;;;10.44;88.08
10460;BME280;54412;51.206;6.888;2024-01-25T02:40:34;102108.56;;;10.21;88.40
10460;BME280;54412;51.206;6.888;2024-01-25T02:43:00;102109.72;;;10.45;88.34
10460;BME280;54412;51.206;6.888;2024-01-25T02:45:26;102106.06;;;10.49;88.18
10460;BME280;54412;51.206;6.888;2024-01-25T02:47:51;102108.94;;;10.41;88.62
10460;BME280;54412;51.206;6.888;2024-01-25T02:50:17;102103.72;;;10.38;88.49
10460;BME280;54412;51.206;6.888;2024-01-25T02:52:43;102097.31;;;10.47;88.04
10460;BME280;54412;51.206;6.888;2024-01-25T02:55:08;102112.34;;;10.45;88.07
10460;BME280;54412;51.206;6.888;2024-01-25T02:57:34;102102.09;;;10.33;88.51
10460;BME280;54412;51.206;6.888;2024-01-25T03:00:00;102112.34;;;10.45;88.28
10460;BME280;54412;51.206;6.888;2024-01-25T03:02:26;102113.38;;;10.39;88.18
10460;BME280;54412;51.206;6.888;2024-01-25T03:04:52;102105.09;;;10.53;87.80
10460;BME280;54412;51.206;6.888;2024-01-25T03:07:17;102104.63;;;10.37;87.98
10460;BME280;54412;51.206;6.888;2024-01-25T03:09:43;102100.38;;;10.32;88.47
10460;BME280;54412;51.206;6.888;2024-01-25T03:12:09;102091.78;;;10.56;87.84
10460;BME280;54412;51.206;6.888;2024-01-25T03:14:35;102085.50;;;10.62;86.68
10460;BME280;54412;51.206;6.888;2024-01-25T03:17:01;102086.50;;;10.58;86.96
10460;BME280;54412;51.206;6.888;2024-01-25T03:19:27;102089.81;;;10.32;87.72
10460;BME280;54412;51.206;6.888;2024-01-25T03:21:53;102074.69;;;10.38;88.19
10460;BME280;54412;51.206;6.888;2024-01-25T03:24:21;102078.91;;;10.45;87.37
10460;BME280;54412;51.206;6.888;2024-01-25T03:26:47;102088.44;;;10.17;88.63
10460;BME280;54412;51.206;6.888;2024-01-25T03:29:13;102091.91;;;10.19;88.56
10460;BME280;54412;51.206;6.888;2024-01-25T03:31:38;102099.44;;;10.33;88.06
10460;BME280;54412;51.206;6.888;2024-01-25T03:34:04;102100.47;;;10.29;87.84
10460;BME280;54412;51.206;6.888;2024-01-25T03:36:30;102089.53;;;10.09;88.96
10460;BME280;54412;51.206;6.888;2024-01-25T03:38:57;102093.56;;;10.23;88.38
10460;BME280;54412;51.206;6.888;2024-01-25T03:41:23;102101.44;;;10.25;88.49
10460;BME280;54412;51.206;6.888;2024-01-25T03:43:50;102104.31;;;10.16;89.01
10460;BME280;54412;51.206;6.888;2024-01-25T03:46:16;102102.84;;;10.03;89.53
10460;BME280;54412;51.206;6.888;2024-01-25T03:48:42;102106.09;;;10.14;89.00
10460;BME280;54412;51.206;6.888;2024-01-25T03:51:08;102103.00;;;9.95;88.89
10460;BME280;54412;51.206;6.888;2024-01-25T03:53:33;102111.88;;;9.93;89.61
10460;BME280;54412;51.206;6.888;2024-01-25T03:55:59;102122.16;;;10.03;88.85
10460;BME280;54412;51.206;6.888;2024-01-25T03:58:25;102116.28;;;9.92;89.47
10460;BME280;54412;51.206;6.888;2024-01-25T04:00:51;102117.25;;;9.88;89.58
10460;BME280;54412;51.206;6.888;2024-01-25T04:03:16;102121.59;;;9.91;89.44
10460;BME280;54412;51.206;6.888;2024-01-25T04:05:42;102122.38;;;9.94;89.08
10460;BME280;54412;51.206;6.888;2024-01-25T04:08:08;102127.69;;;9.91;89.19
10460;BME280;54412;51.206;6.888;2024-01-25T04:10:34;102126.81;;;9.92;89.07
10460;BME280;54412;51.206;6.888;2024-01-25T04:12:59;102128.69;;;9.87;89.73
10460;BME280;54412;51.206;6.888;2024-01-25T04:15:26;102126.06;;;9.87;89.53
10460;BME280;54412;51.206;6.888;2024-01-25T04:17:52;102126.16;;;9.83;89.32
10460;BME280;54412;51.206;6.888;2024-01-25T04:20:19;102126.41;;;9.72;89.61
10460;BME280;54412;51.206;6.888;2024-01-25T04:22:45;102132.75;;;9.64;89.91
10460;BME280;54412;51.206;6.888;2024-01-25T04:25:11;102134.09;;;9.81;88.98
10460;BME280;54412;51.206;6.888;2024-01-25T04:27:39;102130.00;;;9.68;89.42
10460;BME280;54412;51.206;6.888;2024-01-25T04:30:06;102126.50;;;9.69;89.74
10460;BME280;54412;51.206;6.888;2024-01-25T04:32:33;102129.38;;;9.57;89.77
10460;BME280;54412;51.206;6.888;2024-01-25T04:34:59;102133.00;;;9.53;90.25
10460;BME280;54412;51.206;6.888;2024-01-25T04:37:25;102130.59;;;9.41;90.21
10460;BME280;54412;51.206;6.888;2024-01-25T04:39:50;102137.56;;;9.45;89.50
10460;BME280;54412;51.206;6.888;2024-01-25T04:42:16;102134.44;;;9.26;90.42
10460;BME280;54412;51.206;6.888;2024-01-25T04:44:42;102134.53;;;9.22;90.20
10460;BME280;54412;51.206;6.888;2024-01-25T04:47:09;102134.69;;;9.14;89.81
10460;BME280;54412;51.206;6.888;2024-01-25T04:49:35;102133.84;;;9.12;89.64
10460;BME280;54412;51.206;6.888;2024-01-25T04:52:01;102141.63;;;9.18;90.54
10460;BME280;54412;51.206;6.888;2024-01-25T04:54:27;102146.88;;;9.20;91.85
10460;BME280;54412;51.206;6.888;2024-01-25T04:56:52;102143.75;;;9.00;91.73
10460;BME280;54412;51.206;6.888;2024-01-25T04:59:18;102142.03;;;8.99;90.94
10460;BME280;54412;51.206;6.888;2024-01-25T05:01:44;102141.22;;;8.95;90.86
10460;BME280;54412;51.206;6.888;2024-01-25T05:04:09;102148.25;;;8.95;90.73
10460;BME280;54412;51.206;6.888;2024-01-25T05:06:35;102150.06;;;8.91;90.17
10460;BME280;54412;51.206;6.888;2024-01-25T05:09:01;102155.38;;;8.90;90.16
10460;BME280;54412;51.206;6.888;2024-01-25T05:11:27;102153.84;;;8.77;89.60
10460;BME280;54412;51.206;6.888;2024-01-25T05:13:52;102152.16;;;8.74;88.61
10460;BME280;54412;51.206;6.888;2024-01-25T05:16:18;102150.66;;;8.61;88.45
10460;BME280;54412;51.206;6.888;2024-01-25T05:18:44;102149.09;;;8.50;88.72
10460;BME280;54412;51.206;6.888;2024-01-25T05:21:09;102135.91;;;8.51;88.25
10460;BME280;54412;51.206;6.888;2024-01-25T05:23:35;102135.03;;;8.52;88.05
10460;BME280;54412;51.206;6.888;2024-01-25T05:26:01;102141.47;;;8.34;88.10
10460;BME280;54412;51.206;6.888;2024-01-25T05:28:27;102140.59;;;8.34;88.25
10460;BME280;54412;51.206;6.888;2024-01-25T05:30:53;102144.59;;;8.56;86.50
10460;BME280;54412;51.206;6.888;2024-01-25T05:33:19;102145.03;;;8.30;86.98
10460;BME280;54412;51.206;6.888;2024-01-25T05:35:44;102143.38;;;8.23;86.63
10460;BME280;54412;51.206;6.888;2024-01-25T05:38:10;102141.44;;;8.36;86.01
10460;BME280;54412;51.206;6.888;2024-01-25T05:40:36;102138.13;;;8.23;86.35
10460;BME280;54412;51.206;6.888;2024-01-25T05:43:01;102133.59;;;8.34;85.59
10460;BME280;54412;51.206;6.888;2024-01-25T05:45:28;102140.16;;;8.60;84.58
10460;BME280;54412;51.206;6.888;2024-01-25T05:47:54;102133.25;;;8.54;86.28
10460;BME280;54412;51.206;6.888;2024-01-25T05:50:19;102129.63;;;8.58;84.90
10460;BME280;54412;51.206;6.888;2024-01-25T05:52:45;102131.50;;;8.53;83.58
10460;BME280;54412;51.206;6.888;2024-01-25T05:55:11;102127.97;;;8.54;83.11
10460;BME280;54412;51.206;6.888;2024-01-25T05:57:39;102135.47;;;8.75;81.93
10460;BME280;54412;51.206;6.888;2024-01-25T06:00:05;102140.31;;;8.51;82.05
10460;BME280;54412;51.206;6.888;2024-01-25T06:02:31;102147.28;;;8.53;82.45
10460;BME280;54412;51.206;6.888;2024-01-25T06:04:57;102145.25;;;8.67;81.73
10460;BME280;54412;51.206;6.888;2024-01-25T06:07:25;102155.25;;;8.49;81.40
10460;BME280;54412;51.206;6.888;2024-01-25T06:09:52;102155.88;;;8.63;81.32
10460;BME280;54412;51.206;6.888;2024-01-25T06:12:18;102157.72;;;8.58;81.71
10460;BME280;54412;51.206;6.888;2024-01-25T06:14:44;102167.28;;;8.63;81.96
10460;BME280;54412;51.206;6.888;2024-01-25T06:17:10;102172.00;;;8.43;82.49
10460;BME280;54412;51.206;6.888;2024-01-25T06:19:35;102180.59;;;8.54;82.13
10460;BME280;54412;51.206;6.888;2024-01-25T06:22:01;102168.59;;;8.38;82.08
10460;BME280;54412;51.206;6.888;2024-01-25T06:24:28;102173.31;;;8.13;83.90
10460;BME280;54412;51.206;6.888;2024-01-25T06:26:54;102168.25;;;8.01;84.54
10460;BME280;54412;51.206;6.888;2024-01-25T06:29:19;102178.00;;;7.93;85.03
10460;BME280;54412;51.206;6.888;2024-01-25T06:31:45;102175.72;;;7.71;85.10
10460;BME280;54412;51.206;6.888;2024-01-25T06:34:12;102175.66;;;7.75;85.44
10460;BME280;54412;51.206;6.888;2024-01-25T06:36:37;102174.16;;;7.56;85.49
10460;BME280;54412;51.206;6.888;2024-01-25T06:39:03;102184.34;;;7.77;85.57
10460;BME280;54412;51.206;6.888;2024-01-25T06:41:33;102185.34;;;7.70;85.58
10460;BME280;54412;51.206;6.888;2024-01-25T06:43:59;102194.25;;;7.60;85.67
10460;BME280;54412;51.206;6.888;2024-01-25T06:46:25;102192.34;;;7.71;84.90
10460;BME280;54412;51.206;6.888;2024-01-25T06:48:52;102191.59;;;7.62;84.82
10460;BME280;54412;51.206;6.888;2024-01-25T06:51:17;102197.09;;;7.42;84.90
10460;BME280;54412;51.206;6.888;2024-01-25T06:53:43;102203.34;;;7.32;85.35
10460;BME280;54412;51.206;6.888;2024-01-25T06:56:09;102220.78;;;7.39;85.05
10460;BME280;54412;51.206;6.888;2024-01-25T06:58:35;102215.25;;;7.60;84.09
10460;BME280;54412;51.206;6.888;2024-01-25T07:01:01;102210.88;;;7.58;83.38
10460;BME280;54412;51.206;6.888;2024-01-25T07:03:27;102203.16;;;7.47;84.30
10460;BME280;54412;51.206;6.888;2024-01-25T07:05:52;102218.25;;;7.27;85.24
10460;BME280;54412;51.206;6.888;2024-01-25T07:08:18;102214.56;;;7.46;85.15
10460;BME280;54412;51.206;6.888;2024-01-25T07:10:45;102221.41;;;7.56;86.25
10460;BME280;54412;51.206;6.888;2024-01-25T07:13:11;102226.72;;;7.53;87.19
10460;BME280;54412;51.206;6.888;2024-01-25T07:15:36;102223.22;;;7.53;87.74
10460;BME280;54412;51.206;6.888;2024-01-25T07:18:02;102229.44;;;7.46;88.60
10460;BME280;54412;51.206;6.888;2024-01-25T07:20:28;102229.13;;;7.70;86.78
10460;BME280;54412;51.206;6.888;2024-01-25T07:22:54;102230.38;;;7.38;86.34
10460;BME280;54412;51.206;6.888;2024-01-25T07:25:20;102232.19;;;7.35;86.59
10460;BME280;54412;51.206;6.888;2024-01-25T07:27:46;102241.72;;;7.42;85.94
10460;BME280;54412;51.206;6.888;2024-01-25T07:30:13;102220.59;;;7.53;85.96
10460;BME280;54412;51.206;6.888;2024-01-25T07:32:39;102232.13;;;7.41;86.13
10460;BME280;54412;51.206;6.888;2024-01-25T07:35:08;102229.63;;;7.29;86.69
10460;BME280;54412;51.206;6.888;2024-01-25T07:37:36;102234.44;;;7.65;86.23
10460;BME280;54412;51.206;6.888;2024-01-25T07:40:01;102230.25;;;7.49;86.39
10460;BME280;54412;51.206;6.888;2024-01-25T07:42:29;102220.63;;;7.50;86.13
10460;BME280;54412;51.206;6.888;2024-01-25T07:44:54;102222.44;;;7.45;86.04
10460;BME280;54412;51.206;6.888;2024-01-25T07:47:20;102221.53;;;7.47;86.19
10460;BME280;54412;51.206;6.888;2024-01-25T07:49:46;102219.56;;;7.66;85.45
10460;BME280;54412;51.206;6.888;2024-01-25T07:52:11;102227.69;;;7.46;87.63
10460;BME280;54412;51.206;6.888;2024-01-25T07:54:37;102240.00;;;7.38;87.38
10460;BME280;54412;51.206;6.888;2024-01-25T07:57:03;102241.66;;;7.48;87.55
10460;BME280;54412;51.206;6.888;2024-01-25T07:59:29;102242.53;;;7.47;88.61
10460;BME280;54412;51.206;6.888;2024-01-25T08:01:54;102238.84;;;7.62;88.80
10460;BME280;54412;51.206;6.888;2024-01-25T08:04:20;102251.06;;;7.66;88.60
10460;BME280;54412;51.206;6.888;2024-01-25T08:06:46;102255.31;;;7.74;88.74
10460;BME280;54412;51.206;6.888;2024-01-25T08:09:11;102252.88;;;7.62;89.66
10460;BME280;54412;51.206;6.888;2024-01-25T08:11:37;102257.88;;;7.82;89.40
10460;BME280;54412;51.206;6.888;2024-01-25T08:14:03;102254.47;;;7.75;89.20
10460;BME280;54412;51.206;6.888;2024-01-25T08:16:29;102260.41;;;7.88;88.56
10460;BME280;54412;51.206;6.888;2024-01-25T08:18:55;102257.78;;;7.89;88.96
10460;BME280;54412;51.206;6.888;2024-01-25T08:21:21;102254.13;;;7.99;88.57
10460;BME280;54412;51.206;6.888;2024-01-25T08:23:47;102253.16;;;8.05;88.91
10460;BME280;54412;51.206;6.888;2024-01-25T08:26:13;102252.44;;;7.94;88.96
10460;BME280;54412;51.206;6.888;2024-01-25T08:28:40;102244.41;;;8.04;88.97
10460;BME280;54412;51.206;6.888;2024-01-25T08:31:06;102246.25;;;7.98;87.98
10460;BME280;54412;51.206;6.888;2024-01-25T08:33:32;102244.28;;;8.13;88.15
10460;BME280;54412;51.206;6.888;2024-01-25T08:35:57;102236.50;;;8.07;88.93
10460;BME280;54412;51.206;6.888;2024-01-25T08:38:23;102232.75;;;8.23;88.57
10460;BME280;54412;51.206;6.888;2024-01-25T08:40:49;102239.91;;;8.12;89.09
10460;BME280;54412;51.206;6.888;2024-01-25T08:43:14;102232.69;;;8.28;88.48
10460;BME280;54412;51.206;6.888;2024-01-25T08:45:40;102244.97;;;8.29;89.00
10460;BME280;54412;51.206;6.888;2024-01-25T08:48:06;102243.16;;;8.32;89.48
10460;BME280;54412;51.206;6.888;2024-01-25T08:50:35;102241.28;;;8.39;89.81
10460;BME280;54412;51.206;6.888;2024-01-25T08:53:01;102236.03;;;8.39;89.63
10460;BME280;54412;51.206;6.888;2024-01-25T08:55:27;102234.19;;;8.44;90.63
10460;BME280;54412;51.206;6.888;2024-01-25T08:57:52;102236.75;;;8.50;91.94
10460;BME280;54412;51.206;6.888;2024-01-25T09:00:18;102226.22;;;8.50;92.25
10460;BME280;54412;51.206;6.888;2024-01-25T09:02:44;102219.72;;;8.72;91.40
10460;BME280;54412;51.206;6.888;2024-01-25T09:05:10;102224.09;;;8.72;92.42
10460;BME280;54412;51.206;6.888;2024-01-25T09:07:37;102233.81;;;8.68;92.23
10460;BME280;54412;51.206;6.888;2024-01-25T09:10:03;102229.47;;;8.66;91.88
10460;BME280;54412;51.206;6.888;2024-01-25T09:12:30;102224.69;;;8.87;91.55
10460;BME280;54412;51.206;6.888;2024-01-25T09:14:56;102222.47;;;8.65;93.06
10460;BME280;54412;51.206;6.888;2024-01-25T09:17:22;102223.09;;;8.79;93.11
10460;BME280;54412;51.206;6.888;2024-01-25T09:19:49;102231.63;;;8.93;92.78
10460;BME280;54412;51.206;6.888;2024-01-25T09:22:15;102228.25;;;8.85;93.02
10460;BME280;54412;51.206;6.888;2024-01-25T09:24:43;102233.25;;;9.00;92.92
10460;BME280;54412;51.206;6.888;2024-01-25T09:27:09;102228.03;;;8.97;92.43
10460;BME280;54412;51.206;6.888;2024-01-25T09:29:35;102246.25;;;9.07;92.73
10460;BME280;54412;51.206;6.888;2024-01-25T09:32:00;102252.50;;;9.02;94.81
10460;BME280;54412;51.206;6.888;2024-01-25T09:34:26;102262.63;;;9.24;94.37
10460;BME280;54412;51.206;6.888;2024-01-25T09:36:52;102267.59;;;9.39;93.84
10460;BME280;54412;51.206;6.888;2024-01-25T09:39:18;102260.84;;;9.69;92.37
10460;BME280;54412;51.206;6.888;2024-01-25T09:41:43;102253.84;;;9.68;91.86
10460;BME280;54412;51.206;6.888;2024-01-25T09:44:10;102258.22;;;9.69;91.97
10460;BME280;54412;51.206;6.888;2024-01-25T09:46:37;102265.22;;;9.70;91.53
10460;BME280;54412;51.206;6.888;2024-01-25T09:49:06;102271.38;;;9.71;91.03
10460;BME280;54412;51.206;6.888;2024-01-25T09:51:40;102268.50;;;9.81;90.82
10460;BME280;54412;51.206;6.888;2024-01-25T09:54:07;102267.53;;;9.85;90.04
10460;BME280;54412;51.206;6.888;2024-01-25T09:56:34;102278.44;;;10.10;90.00
10460;BME280;54412;51.206;6.888;2024-01-25T09:59:01;102274.31;;;9.97;90.04
10460;BME280;54412;51.206;6.888;2024-01-25T10:01:27;102275.28;;;9.93;89.74
10460;BME280;54412;51.206;6.888;2024-01-25T10:03:53;102271.09;;;9.83;90.59
10460;BME280;54412;51.206;6.888;2024-01-25T10:06:22;102271.06;;;10.25;89.29
10460;BME280;54412;51.206;6.888;2024-01-25T10:08:48;102276.13;;;10.34;88.17
10460;BME280;54412;51.206;6.888;2024-01-25T10:11:15;102279.13;;;10.56;88.70
10460;BME280;54412;51.206;6.888;2024-01-25T10:13:46;102277.53;;;10.49;87.96
10460;BME280;54412;51.206;6.888;2024-01-25T10:16:14;102274.06;;;10.48;88.04
10460;BME280;54412;51.206;6.888;2024-01-25T10:18:42;102274.06;;;10.47;88.40
10460;BME280;54412;51.206;6.888;2024-01-25T10:21:10;102271.91;;;10.27;88.95
10460;BME280;54412;51.206;6.888;2024-01-25T10:23:37;102276.19;;;10.31;89.40
10460;BME280;54412;51.206;6.888;2024-01-25T10:26:03;102267.28;;;10.37;88.56
10460;BME280;54412;51.206;6.888;2024-01-25T10:28:29;102267.19;;;10.41;88.54
10460;BME280;54412;51.206;6.888;2024-01-25T10:30:57;102265.66;;;10.31;88.80
10460;BME280;54412;51.206;6.888;2024-01-25T10:33:27;102269.00;;;10.39;88.83
10460;BME280;54412;51.206;6.888;2024-01-25T10:35:57;102270.41;;;10.54;88.35
10460;BME280;54412;51.206;6.888;2024-01-25T10:38:36;102264.50;;;10.43;88.70
10460;BME280;54412;51.206;6.888;2024-01-25T10:41:05;102260.69;;;10.54;88.93
10460;BME280;54412;51.206;6.888;2024-01-25T10:43:31;102257.50;;;10.42;89.59
10460;BME280;54412;51.206;6.888;2024-01-25T10:45:58;102249.84;;;10.31;89.26
10460;BME280;54412;51.206;6.888;2024-01-25T10:48:28;102244.13;;;10.49;88.46
10460;BME280;54412;51.206;6.888;2024-01-25T10:50:55;102231.69;;;10.54;88.40
10460;BME280;54412;51.206;6.888;2024-01-25T10:53:23;102235.09;;;10.58;87.80
10460;BME280;54412;51.206;6.888;2024-01-25T10:55:50;102219.47;;;10.50;88.62
10460;BME280;54412;51.206;6.888;2024-01-25T10:58:17;102226.44;;;10.53;88.19
10460;BME280;54412;51.206;6.888;2024-01-25T11:00:54;102216.72;;;10.89;87.13
10460;BME280;54412;51.206;6.888;2024-01-25T11:03:29;102218.03;;;11.05;86.01
10460;BME280;54412;51.206;6.888;2024-01-25T11:06:07;102211.78;;;11.09;85.81
10460;BME280;54412;51.206;6.888;2024-01-25T11:08:37;102219.53;;;10.83;85.73
10460;BME280;54412;51.206;6.888;2024-01-25T11:11:10;102203.22;;;10.67;86.44
10460;BME280;54412;51.206;6.888;2024-01-25T11:13:40;102208.41;;;11.04;85.40
10460;BME280;54412;51.206;6.888;2024-01-25T11:16:17;102203.19;;;11.02;85.19
10460;BME280;54412;51.206;6.888;2024-01-25T11:18:51;102196.81;;;11.09;84.58
10460;BME280;54412;51.206;6.888;2024-01-25T11:24:05;102185.28;;;11.12;84.25
10460;BME280;54412;51.206;6.888;2024-01-25T11:26:34;102191.28;;;11.18;84.68
10460;BME280;54412;51.206;6.888;2024-01-25T11:29:00;102185.84;;;11.23;84.11
10460;BME280;54412;51.206;6.888;2024-01-25T11:31:29;102187.56;;;11.25;84.60
10460;BME280;54412;51.206;6.888;2024-01-25T11:33:59;102192.78;;;11.27;83.98
10460;BME280;54412;51.206;6.888;2024-01-25T11:36:28;102193.72;;;11.26;83.88
10460;BME280;54412;51.206;6.888;2024-01-25T11:38:54;102183.69;;;11.37;83.75
10460;BME280;54412;51.206;6.888;2024-01-25T11:41:20;102175.28;;;11.53;81.99
10460;BME280;54412;51.206;6.888;2024-01-25T11:43:48;102171.03;;;11.19;82.84
10460;BME280;54412;51.206;6.888;2024-01-25T11:46:15;102167.38;;;11.23;82.89
10460;BME280;54412;51.206;6.888;2024-01-25T11:48:41;102156.28;;;11.10;82.71
10460;BME280;54412;51.206;6.888;2024-01-25T11:51:09;102146.53;;;11.12;83.06
10460;BME280;54412;51.206;6.888;2024-01-25T11:53:36;102152.13;;;11.02;83.07
10460;BME280;54412;51.206;6.888;2024-01-25T11:56:07;102145.91;;;11.04;83.50
10460;BME280;54412;51.206;6.888;2024-01-25T11:58:35;102159.19;;;11.01;83.41
10460;BME280;54412;51.206;6.888;2024-01-25T12:01:03;102169.16;;;10.92;83.86
10460;BME280;54412;51.206;6.888;2024-01-25T12:03:34;102160.31;;;10.93;83.69
10460;BME280;54412;51.206;6.888;2024-01-25T12:06:03;102162.75;;;10.68;85.16
10460;BME280;54412;51.206;6.888;2024-01-25T12:08:32;102154.88;;;10.65;85.15
10460;BME280;54412;51.206;6.888;2024-01-25T12:11:09;102138.34;;;10.59;85.25
10460;BME280;54412;51.206;6.888;2024-01-25T12:13:44;102146.03;;;10.68;84.57
10460;BME280;54412;51.206;6.888;2024-01-25T12:16:11;102137.69;;;10.50;85.26
10460;BME280;54412;51.206;6.888;2024-01-25T12:18:41;102126.69;;;10.67;85.43
10460;BME280;54412;51.206;6.888;2024-01-25T12:21:07;102126.63;;;10.69;84.90
10460;BME280;54412;51.206;6.888;2024-01-25T12:23:35;102134.75;;;10.63;85.17
10460;BME280;54412;51.206;6.888;2024-01-25T12:26:06;102142.81;;;10.89;85.36
10460;BME280;54412;51.206;6.888;2024-01-25T12:28:33;102134.88;;;10.89;85.82
10460;BME280;54412;51.206;6.888;2024-01-25T12:31:03;102146.13;;;10.97;84.75
10460;BME280;54412;51.206;6.888;2024-01-25T12:33:30;102142.34;;;11.05;85.04
10460;BME280;54412;51.206;6.888;2024-01-25T12:35:56;102142.50;;;10.99;83.53
10460;BME280;54412;51.206;6.888;2024-01-25T12:38:22;102119.06;;;10.89;84.00
10460;BME280;54412;51.206;6.888;2024-01-25T12:40:50;102104.13;;;10.88;83.90
10460;BME280;54412;51.206;6.888;2024-01-25T12:43:16;102114.75;;;10.85;83.90
10460;BME280;54412;51.206;6.888;2024-01-25T12:45:42;102136.63;;;10.58;84.74
10460;BME280;54412;51.206;6.888;2024-01-25T12:48:09;102134.97;;;10.53;85.77
10460;BME280;54412;51.206;6.888;2024-01-25T12:50:35;102137.28;;;10.66;85.23
10460;BME280;54412;51.206;6.888;2024-01-25T12:53:02;102126.09;;;10.56;85.86
10460;BME280;54412;51.206;6.888;2024-01-25T12:55:29;102126.63;;;10.70;85.28